Time;durP1;ratioP1;P1;durP2;ratioP2;P2;SDS_P1;SDS_P2;PMS_P1;PMS_P2;Temp;Humidity;BMP_temperature;BMP_pressure;BME280_temperature;BME280_humidity;BME280_pressure;Samples;Min_cycle;Max_cycle;Signal;HPM_P1;HPM_P2
2023/04/15 00:01:25;;;;;;;;;;;;;;;22.25;30.45;97293.75;4981514;28;1028;-79
2023/04/15 00:03:52;;;;;;;;;;;;;;;21.78;31.18;97285.47;4981555;28;1021;-80
2023/04/15 00:06:18;;;;;;;;;;;;;;;21.51;31.28;97286.09;4981872;28;949;-80
2023/04/15 00:08:44;;;;;;;;;;;;;;;21.55;31.09;97292.41;4958191;29;980;-81
2023/04/15 00:11:10;;;;;;;;;;;;;;;21.79;30.62;97290.69;4959218;29;1081;-80
2023/04/15 00:13:35;;;;;;;;;;;;;;;21.63;31.01;97293.72;4926011;29;958;-80
2023/04/15 00:16:01;;;;;;;;;;;;;;;21.64;30.76;97300.97;4959260;29;1088;-81
2023/04/15 00:18:28;;;;;;;;;;;;;;;22.33;30.57;97306.41;4942209;29;996;-79
2023/04/15 00:20:54;;;;;;;;;;;;;;;22.47;30.32;97301.38;4927328;29;1912;-79
2023/04/15 00:23:19;;;;;;;;;;;;;;;22.25;30.20;97304.31;4919528;29;1024;-80
2023/04/15 00:25:45;;;;;;;;;;;;;;;21.84;30.63;97303.44;4920531;29;987;-79
2023/04/15 00:28:11;;;;;;;;;;;;;;;21.74;30.65;97299.78;4919713;29;1000;-80
2023/04/15 00:30:36;;;;;;;;;;;;;;;21.59;30.90;97301.56;4933580;29;1382;-80
2023/04/15 00:33:02;;;;;;;;;;;;;;;21.54;31.01;97302.94;4926327;29;962;-80
2023/04/15 00:35:28;;;;;;;;;;;;;;;21.61;30.95;97298.28;4957946;29;1021;-80
2023/04/15 00:37:54;;;;;;;;;;;;;;;21.73;30.69;97303.84;4958306;29;1012;-79
2023/04/15 00:40:20;;;;;;;;;;;;;;;21.44;31.11;97303.34;4986687;28;1983;-78
2023/04/15 00:42:45;;;;;;;;;;;;;;;21.66;31.11;97304.13;4980096;28;989;-80
2023/04/15 00:45:12;;;;;;;;;;;;;;;22.21;30.91;97301.59;4980973;28;1040;-81
2023/04/15 00:47:38;;;;;;;;;;;;;;;22.41;30.55;97308.94;4996932;28;989;-80
2023/04/15 00:50:04;;;;;;;;;;;;;;;22.32;30.24;97316.13;4980504;28;986;-80
2023/04/15 00:52:30;;;;;;;;;;;;;;;22.04;30.70;97320.06;4996478;28;953;-80
2023/04/15 00:54:56;;;;;;;;;;;;;;;21.90;30.70;97317.78;5028374;28;942;-80
2023/04/15 00:57:22;;;;;;;;;;;;;;;21.76;30.56;97317.09;5020677;28;1119;-80
2023/04/15 00:59:47;;;;;;;;;;;;;;;21.95;30.09;97320.03;4987031;28;1902;-79
2023/04/15 01:02:13;;;;;;;;;;;;;;;21.56;30.59;97328.75;5020466;28;892;-80
2023/04/15 01:04:39;;;;;;;;;;;;;;;21.45;30.82;97321.91;5020264;28;945;-80
2023/04/15 01:07:04;;;;;;;;;;;;;;;21.87;30.50;97321.56;5003812;28;966;-80
2023/04/15 01:09:30;;;;;;;;;;;;;;;22.27;30.03;97330.91;5037584;28;928;-79
2023/04/15 01:11:56;;;;;;;;;;;;;;;22.19;30.04;97329.63;4999712;28;1191;-80
2023/04/15 01:14:23;;;;;;;;;;;;;;;22.02;29.84;97317.72;4983180;28;1118;-80
2023/04/15 01:16:49;;;;;;;;;;;;;;;21.49;30.58;97320.50;4983889;28;1031;-80
2023/04/15 01:19:16;;;;;;;;;;;;;;;21.49;30.24;97316.91;4999097;28;1914;-80
2023/04/15 01:21:41;;;;;;;;;;;;;;;21.59;30.04;97312.88;4999862;28;1034;-80
2023/04/15 01:24:08;;;;;;;;;;;;;;;21.97;29.75;97315.50;4960118;28;1171;-80
2023/04/15 01:26:34;;;;;;;;;;;;;;;22.20;29.75;97319.88;4961098;28;896;-79
2023/04/15 01:29:00;;;;;;;;;;;;;;;22.15;29.55;97319.69;4960733;28;1259;-79
2023/04/15 01:31:26;;;;;;;;;;;;;;;21.98;29.39;97319.09;4945244;28;1279;-80
2023/04/15 01:33:51;;;;;;;;;;;;;;;21.61;29.71;97310.41;4937800;29;988;-80
2023/04/15 01:36:17;;;;;;;;;;;;;;;21.63;29.85;97313.53;4938432;29;1114;-80
2023/04/15 01:38:43;;;;;;;;;;;;;;;21.55;29.60;97298.88;4921957;29;1078;-80
2023/04/15 01:41:08;;;;;;;;;;;;;;;21.64;29.32;97312.28;4869040;29;1911;-80
2023/04/15 01:43:35;;;;;;;;;;;;;;;21.39;29.91;97298.28;4884308;29;1130;-80
2023/04/15 01:46:01;;;;;;;;;;;;;;;21.94;29.29;97302.25;4870061;29;1293;-80
2023/04/15 01:48:27;;;;;;;;;;;;;;;21.93;29.44;97311.22;4901863;29;1055;-79
2023/04/15 01:50:53;;;;;;;;;;;;;;;22.05;28.87;97313.94;4934965;29;971;-80
2023/04/15 01:53:20;;;;;;;;;;;;;;;21.98;29.10;97307.78;4902623;29;1191;-79
2023/04/15 01:55:45;;;;;;;;;;;;;;;21.78;28.95;97310.97;4903641;29;1144;-80
2023/04/15 01:58:13;;;;;;;;;;;;;;;21.61;29.20;97313.22;4902639;29;1235;-79
2023/04/15 02:00:39;;;;;;;;;;;;;;;21.49;29.28;97316.91;4892931;29;1992;-79
2023/04/15 02:03:05;;;;;;;;;;;;;;;22.14;28.70;97316.06;4957010;29;1115;-80
2023/04/15 02:05:31;;;;;;;;;;;;;;;22.13;28.85;97314.50;4956309;28;1105;-80
2023/04/15 02:07:56;;;;;;;;;;;;;;;22.05;28.60;97313.16;4959865;28;1155;-79
2023/04/15 02:10:22;;;;;;;;;;;;;;;21.77;28.94;97315.06;4960181;28;1217;-79
2023/04/15 02:12:47;;;;;;;;;;;;;;;21.57;29.45;97319.00;5005577;28;1298;-80
2023/04/15 02:15:13;;;;;;;;;;;;;;;21.45;29.26;97321.91;5002387;28;1127;-80
2023/04/15 02:17:44;;;;;;;;;;;;;;;21.50;29.15;97316.47;5018828;28;1174;-79
2023/04/15 02:20:10;;;;;;;;;;;;;;;22.19;28.88;97318.28;5002215;28;1975;-79
2023/04/15 02:22:36;;;;;;;;;;;;;;;22.18;28.44;97328.06;5018690;28;1024;-79
2023/04/15 02:25:01;;;;;;;;;;;;;;;22.05;28.46;97319.59;4978833;28;1175;-80
2023/04/15 02:27:27;;;;;;;;;;;;;;;21.91;28.87;97308.03;4995517;28;1109;-80
2023/04/15 02:29:53;;;;;;;;;;;;;;;21.69;28.87;97308.84;4995432;28;1030;-79
2023/04/15 02:32:19;;;;;;;;;;;;;;;21.55;28.96;97312.22;4979455;28;1192;-80
2023/04/15 02:34:45;;;;;;;;;;;;;;;21.47;29.27;97308.09;4956339;29;932;-80
2023/04/15 02:37:11;;;;;;;;;;;;;;;22.02;28.43;97308.41;4925228;29;1234;-80
2023/04/15 02:39:37;;;;;;;;;;;;;;;22.06;28.55;97297.72;4940818;29;1978;-80
2023/04/15 02:42:03;;;;;;;;;;;;;;;22.26;28.09;97289.66;4956758;28;1532;-80
2023/04/15 02:44:30;;;;;;;;;;;;;;;21.81;28.51;97288.19;4940361;29;1044;-78
2023/04/15 02:46:59;;;;;;;;;;;;;;;21.49;29.05;97299.91;4957366;28;1297;-78
2023/04/15 02:49:25;;;;;;;;;;;;;;;21.37;28.90;97292.28;4925072;29;1204;-80
2023/04/15 02:51:51;;;;;;;;;;;;;;;21.46;28.58;97295.97;4921587;29;1111;-80
2023/04/15 02:54:18;;;;;;;;;;;;;;;22.01;28.93;97304.00;4921087;29;1169;-80
2023/04/15 02:56:43;;;;;;;;;;;;;;;22.05;28.44;97310.31;4936656;29;1279;-80
2023/04/15 02:59:09;;;;;;;;;;;;;;;22.07;28.32;97311.44;4956336;29;1899;-80
2023/04/15 03:01:35;;;;;;;;;;;;;;;22.05;28.24;97307.47;4941234;29;1185;-80
2023/04/15 03:04:00;;;;;;;;;;;;;;;21.36;29.42;97319.03;4941875;29;1133;-80
2023/04/15 03:06:26;;;;;;;;;;;;;;;21.56;28.73;97311.78;4944637;29;1211;-80
2023/04/15 03:08:52;;;;;;;;;;;;;;;21.47;28.79;97303.22;4943776;28;1105;-80
2023/04/15 03:11:18;;;;;;;;;;;;;;;21.54;28.99;97307.81;4966081;28;1056;-80
2023/04/15 03:13:44;;;;;;;;;;;;;;;21.90;28.44;97303.63;4982529;28;1007;-79
2023/04/15 03:16:21;;;;;;;;;;;;;;;21.88;28.62;97314.66;4944220;29;1300;-80
2023/04/15 03:18:46;;;;;;;;;;;;;;;21.45;29.21;97308.56;4943009;29;1413;-80
2023/04/15 03:21:12;;;;;;;;;;;;;;;21.51;28.88;97309.53;4928383;29;1907;-80
2023/04/15 03:23:39;;;;;;;;;;;;;;;21.55;28.76;97303.72;4943512;29;1136;-80
2023/04/15 03:26:05;;;;;;;;;;;;;;;21.55;29.10;97315.06;4927934;29;1405;-80
2023/04/15 03:28:32;;;;;;;;;;;;;;;22.19;28.09;97312.63;4932110;28;1121;-81
2023/04/15 03:30:58;;;;;;;;;;;;;;;22.11;28.33;97311.31;4947524;28;1166;-80
2023/04/15 03:33:24;;;;;;;;;;;;;;;21.91;28.34;97310.88;4962402;28;1117;-80
2023/04/15 03:35:50;;;;;;;;;;;;;;;21.84;28.26;97304.22;4963478;28;1353;-80
2023/04/15 03:38:16;;;;;;;;;;;;;;;21.54;28.99;97308.59;4962113;28;1096;-80
2023/04/15 03:40:41;;;;;;;;;;;;;;;21.70;28.73;97309.66;4978681;28;1903;-80
2023/04/15 03:43:07;;;;;;;;;;;;;;;21.47;28.92;97317.38;4935348;29;1613;-79
2023/04/15 03:45:32;;;;;;;;;;;;;;;21.77;28.38;97310.19;4959423;28;1591;-80
2023/04/15 03:47:58;;;;;;;;;;;;;;;22.21;27.97;97315.78;4942736;29;1003;-80
2023/04/15 03:50:24;;;;;;;;;;;;;;;21.91;28.70;97313.69;4959657;29;930;-80
2023/04/15 03:52:49;;;;;;;;;;;;;;;21.94;28.51;97312.78;4903161;28;1190;-80
2023/04/15 03:55:15;;;;;;;;;;;;;;;21.79;28.67;97307.66;4982148;28;1145;-80
2023/04/15 03:57:40;;;;;;;;;;;;;;;21.96;28.40;97310.28;4981490;28;1103;-80
2023/04/15 04:00:06;;;;;;;;;;;;;;;21.35;28.46;97243.84;4991949;28;2004;-80
2023/04/15 04:02:37;;;;;;;;;;;;;;;21.59;28.63;97312.88;5002916;28;992;-80
2023/04/15 04:05:03;;;;;;;;;;;;;;;21.55;28.40;97315.06;4986087;28;965;-80
2023/04/15 04:07:29;;;;;;;;;;;;;;;21.58;28.96;97305.66;5019735;28;2162;-80
2023/04/15 04:09:56;;;;;;;;;;;;;;;21.77;28.59;97304.53;5021688;28;854;-80
2023/04/15 04:12:21;;;;;;;;;;;;;;;22.13;28.01;97313.72;5022368;28;877;-80
2023/04/15 04:14:47;;;;;;;;;;;;;;;22.18;27.86;97316.72;4980075;28;964;-80
2023/04/15 04:17:12;;;;;;;;;;;;;;;21.73;28.46;97309.53;4981628;28;1013;-79
2023/04/15 04:19:38;;;;;;;;;;;;;;;21.30;29.03;97316.78;4963885;28;1972;-80
2023/04/15 04:22:04;;;;;;;;;;;;;;;21.62;28.59;97314.81;4998024;28;906;-80
2023/04/15 04:24:30;;;;;;;;;;;;;;;22.00;28.33;97322.25;4965127;28;1026;-81
2023/04/15 04:26:56;;;;;;;;;;;;;;;22.26;27.62;97318.00;4958522;29;953;-80
2023/04/15 04:29:21;;;;;;;;;;;;;;;22.14;27.94;97321.72;4910543;29;1093;-79
2023/04/15 04:31:47;;;;;;;;;;;;;;;21.75;28.28;97329.66;4920301;29;1086;-80
2023/04/15 04:34:13;;;;;;;;;;;;;;;21.90;28.04;97323.47;4919819;29;1626;-80
2023/04/15 04:36:38;;;;;;;;;;;;;;;21.80;27.82;97331.91;4904397;29;1100;-80
2023/04/15 04:39:04;;;;;;;;;;;;;;;21.57;28.17;97323.88;4904109;29;1987;-79
2023/04/15 04:41:31;;;;;;;;;;;;;;;21.65;28.17;97319.53;4888820;29;988;-80
2023/04/15 04:43:56;;;;;;;;;;;;;;;21.19;28.84;97324.84;4882207;29;985;-79
2023/04/15 04:46:22;;;;;;;;;;;;;;;21.85;28.46;97322.00;4882308;29;946;-80
2023/04/15 04:48:48;;;;;;;;;;;;;;;21.96;28.01;97315.94;4881174;29;1331;-80
2023/04/15 04:51:13;;;;;;;;;;;;;;;21.88;28.15;97308.97;4886284;29;965;-80
2023/04/15 04:53:39;;;;;;;;;;;;;;;22.00;27.96;97310.94;4888200;29;905;-80
2023/04/15 04:56:05;;;;;;;;;;;;;;;21.76;27.94;97316.28;4904484;29;953;-80
2023/04/15 04:58:31;;;;;;;;;;;;;;;21.43;28.71;97318.75;4903586;29;1069;-80
2023/04/15 05:00:57;;;;;;;;;;;;;;;21.81;28.36;97310.84;4920270;29;1969;-80
2023/04/15 05:03:22;;;;;;;;;;;;;;;22.30;27.24;97312.97;4951253;28;1454;-81
2023/04/15 05:05:48;;;;;;;;;;;;;;;22.11;27.78;97322.66;4980795;28;1022;-80
2023/04/15 05:08:14;;;;;;;;;;;;;;;21.90;27.92;97317.78;4980468;28;1055;-80
2023/04/15 05:10:40;;;;;;;;;;;;;;;21.75;28.02;97312.66;4980300;28;941;-80
2023/04/15 05:13:05;;;;;;;;;;;;;;;21.64;28.03;97315.13;4957473;29;943;-80
2023/04/15 05:15:32;;;;;;;;;;;;;;;21.71;27.96;97317.69;4941810;29;1002;-81
2023/04/15 05:17:57;;;;;;;;;;;;;;;21.43;28.30;97315.91;4923623;29;1424;-80
2023/04/15 05:20:23;;;;;;;;;;;;;;;21.68;28.02;97317.81;4959022;28;1906;-79
2023/04/15 05:22:49;;;;;;;;;;;;;;;21.74;27.92;97327.28;4979947;28;1114;-80
2023/04/15 05:25:15;;;;;;;;;;;;;;;22.13;27.60;97319.38;4980391;28;947;-79
2023/04/15 05:27:40;;;;;;;;;;;;;;;22.16;27.63;97330.53;4996128;28;957;-80
2023/04/15 05:30:07;;;;;;;;;;;;;;;22.02;27.79;97333.91;4995844;28;1062;-80
2023/04/15 05:32:33;;;;;;;;;;;;;;;22.11;27.76;97339.66;4996511;28;1082;-80
2023/04/15 05:34:58;;;;;;;;;;;;;;;21.87;27.66;97347.06;4979422;28;1274;-79
2023/04/15 05:37:24;;;;;;;;;;;;;;;21.55;28.53;97346.19;4996161;28;1247;-80
2023/04/15 05:39:50;;;;;;;;;;;;;;;21.61;28.45;97355.69;4995385;28;1977;-80
2023/04/15 05:42:15;;;;;;;;;;;;;;;21.69;28.10;97359.81;4980119;28;917;-80
2023/04/15 05:44:41;;;;;;;;;;;;;;;21.66;27.91;97365.59;4979263;28;1041;-80
2023/04/15 05:47:07;;;;;;;;;;;;;;;22.06;27.90;97371.38;4996486;28;929;-80
2023/04/15 05:49:33;;;;;;;;;;;;;;;21.92;28.05;97380.44;4967983;28;1215;-80
2023/04/15 05:51:58;;;;;;;;;;;;;;;21.97;27.86;97391.19;5016406;28;1599;-80
2023/04/15 05:54:25;;;;;;;;;;;;;;;21.84;27.88;97389.19;5026223;28;1416;-80
2023/04/15 05:56:51;;;;;;;;;;;;;;;21.51;28.32;97397.28;5020113;28;984;-80
2023/04/15 05:59:16;;;;;;;;;;;;;;;21.47;28.42;97404.31;5003143;28;1898;-80
2023/04/15 06:01:42;;;;;;;;;;;;;;;21.70;28.24;97411.56;5020227;28;909;-80
2023/04/15 06:04:08;;;;;;;;;;;;;;;21.91;27.69;97418.50;5019669;28;992;-80
2023/04/15 06:06:34;;;;;;;;;;;;;;;21.82;27.96;97405.88;5037475;28;948;-80
2023/04/15 06:08:59;;;;;;;;;;;;;;;21.69;28.11;97407.16;5017555;28;1422;-80
2023/04/15 06:11:26;;;;;;;;;;;;;;;21.40;28.30;97421.53;4994992;28;1414;-79
2023/04/15 06:13:51;;;;;;;;;;;;;;;21.67;27.93;97413.31;4962726;28;1058;-79
2023/04/15 06:16:17;;;;;;;;;;;;;;;21.57;27.70;97414.47;4979257;28;944;-80
2023/04/15 06:18:42;;;;;;;;;;;;;;;22.02;27.62;97416.06;4963214;28;1117;-79
2023/04/15 06:21:08;;;;;;;;;;;;;;;22.02;27.52;97410.38;4979829;28;1910;-80
2023/04/15 06:23:35;;;;;;;;;;;;;;;22.03;27.62;97412.78;4994903;28;1089;-80
2023/04/15 06:26:00;;;;;;;;;;;;;;;21.94;27.58;97411.91;4962907;28;1422;-81
2023/04/15 06:28:26;;;;;;;;;;;;;;;21.99;27.17;97417.00;4946956;28;1103;-80
2023/04/15 06:30:52;;;;;;;;;;;;;;;21.70;27.52;97415.19;4979432;28;1116;-80
2023/04/15 06:33:18;;;;;;;;;;;;;;;21.33;28.05;97417.72;4962352;28;984;-80
2023/04/15 06:35:43;;;;;;;;;;;;;;;21.91;27.59;97421.34;4996118;28;945;-80
2023/04/15 06:38:09;;;;;;;;;;;;;;;21.97;27.83;97436.50;4979594;28;1228;-80
2023/04/15 06:40:34;;;;;;;;;;;;;;;22.10;27.33;97418.19;4982635;28;1950;-80
2023/04/15 06:43:00;;;;;;;;;;;;;;;22.00;27.41;97412.91;4982732;28;1078;-80
2023/04/15 06:45:26;;;;;;;;;;;;;;;21.53;28.16;97413.81;4983257;28;1141;-80
2023/04/15 06:47:51;;;;;;;;;;;;;;;21.66;27.61;97417.38;4983108;28;927;-80
2023/04/15 06:50:17;;;;;;;;;;;;;;;21.58;28.19;97413.22;5000097;28;974;-80
2023/04/15 06:52:43;;;;;;;;;;;;;;;21.56;27.99;97407.25;5000223;28;1234;-80
2023/04/15 06:55:09;;;;;;;;;;;;;;;22.25;27.32;97407.09;5006669;28;1420;-80
2023/04/15 06:57:34;;;;;;;;;;;;;;;22.00;27.64;97424.22;5020677;28;870;-80
2023/04/15 07:00:00;;;;;;;;;;;;;;;22.04;27.75;97430.56;5002581;28;1898;-79
2023/04/15 07:02:26;;;;;;;;;;;;;;;21.71;28.01;97424.47;5003267;28;1275;-80
2023/04/15 07:04:51;;;;;;;;;;;;;;;21.75;27.83;97419.47;5020305;28;1104;-80
2023/04/15 07:07:17;;;;;;;;;;;;;;;21.76;27.59;97427.53;5019716;28;883;-81
2023/04/15 07:09:43;;;;;;;;;;;;;;;21.26;28.33;97429.25;5018250;28;1363;-80
2023/04/15 07:12:09;;;;;;;;;;;;;;;21.56;28.48;97441.22;5019643;28;877;-80
2023/04/15 07:14:35;;;;;;;;;;;;;;;22.21;27.37;97451.00;5020391;28;997;-80
2023/04/15 07:17:01;;;;;;;;;;;;;;;21.90;27.78;97456.56;5019867;28;923;-80
2023/04/15 07:19:26;;;;;;;;;;;;;;;21.98;27.69;97455.06;5018678;28;1894;-80
2023/04/15 07:21:52;;;;;;;;;;;;;;;21.60;27.88;97453.19;5003288;28;1113;-80
2023/04/15 07:24:18;;;;;;;;;;;;;;;21.45;28.43;97443.59;5017803;28;1284;-80
2023/04/15 07:26:44;;;;;;;;;;;;;;;21.48;28.00;97454.81;5002926;28;1119;-80
2023/04/15 07:29:10;;;;;;;;;;;;;;;21.44;28.26;97439.97;5001260;28;1088;-80
2023/04/15 07:31:35;;;;;;;;;;;;;;;22.06;27.24;97453.53;5018460;28;1023;-80
2023/04/15 07:34:02;;;;;;;;;;;;;;;21.95;27.52;97442.59;5017764;28;1136;-79
2023/04/15 07:36:28;;;;;;;;;;;;;;;21.85;27.80;97436.09;5017848;28;1069;-80
2023/04/15 07:38:54;;;;;;;;;;;;;;;21.63;27.96;97443.78;5000330;28;1434;-80
2023/04/15 07:41:20;;;;;;;;;;;;;;;21.55;28.05;97439.59;5018078;28;1914;-80
2023/04/15 07:43:47;;;;;;;;;;;;;;;21.61;28.02;97448.34;5001202;28;1120;-80
2023/04/15 07:46:13;;;;;;;;;;;;;;;21.59;28.03;97446.72;5001711;28;909;-79
2023/04/15 07:48:38;;;;;;;;;;;;;;;22.08;27.62;97442.56;5017086;28;982;-79
2023/04/15 07:51:04;;;;;;;;;;;;;;;21.94;27.63;97448.75;5008363;28;1409;-81
2023/04/15 07:53:31;;;;;;;;;;;;;;;22.07;27.75;97457.94;4981473;28;1203;-80
2023/04/15 07:55:57;;;;;;;;;;;;;;;22.18;27.23;97469.72;4986786;28;1601;-80
2023/04/15 07:58:23;;;;;;;;;;;;;;;21.84;27.78;97468.50;4984741;28;1102;-80
2023/04/15 08:00:48;;;;;;;;;;;;;;;21.52;28.10;97475.28;5014038;28;1894;-79
2023/04/15 08:03:14;;;;;;;;;;;;;;;21.49;28.03;97481.06;5017930;28;1013;-80
2023/04/15 08:05:39;;;;;;;;;;;;;;;21.61;27.85;97465.31;5019722;28;1268;-80
2023/04/15 08:08:05;;;;;;;;;;;;;;;22.23;27.15;97469.13;5019586;28;910;-80
2023/04/15 08:10:31;;;;;;;;;;;;;;;22.23;27.41;97466.31;5019139;28;1792;-80
2023/04/15 08:12:57;;;;;;;;;;;;;;;22.16;27.19;97460.09;5018601;28;1393;-80
2023/04/15 08:15:23;;;;;;;;;;;;;;;21.89;27.56;97455.00;4997602;28;1021;-81
2023/04/15 08:17:48;;;;;;;;;;;;;;;21.67;28.07;97458.59;4997212;28;987;-80
2023/04/15 08:20:14;;;;;;;;;;;;;;;21.50;28.44;97460.00;4996783;28;1906;-79
2023/04/15 08:22:40;;;;;;;;;;;;;;;21.46;28.70;97442.38;4997610;28;990;-80
2023/04/15 08:25:06;;;;;;;;;;;;;;;21.97;27.77;97447.84;4997327;28;1054;-80
2023/04/15 08:27:31;;;;;;;;;;;;;;;22.05;27.51;97444.25;4996885;28;1913;-81
2023/04/15 08:29:57;;;;;;;;;;;;;;;21.98;27.82;97449.41;4980624;28;1073;-81
2023/04/15 08:32:25;;;;;;;;;;;;;;;21.72;28.08;97449.53;4997332;28;956;-80
2023/04/15 08:34:50;;;;;;;;;;;;;;;21.78;27.66;97447.69;4997115;28;1021;-79
2023/04/15 08:37:16;;;;;;;;;;;;;;;21.43;28.34;97455.38;4997366;28;1176;-81
2023/04/15 08:39:44;;;;;;;;;;;;;;;21.31;28.60;97465.50;4960937;28;1910;-81
2023/04/15 08:42:16;;;;;;;;;;;;;;;22.20;27.37;97478.56;4976999;28;2033;-80
2023/04/15 08:44:41;;;;;;;;;;;;;;;21.96;27.57;97468.88;4941840;29;1148;-80
2023/04/15 08:47:07;;;;;;;;;;;;;;;22.25;27.34;97474.34;4926730;29;1245;-79
2023/04/15 08:49:34;;;;;;;;;;;;;;;21.95;27.77;97489.97;4926186;29;1010;-81
2023/04/15 08:52:00;;;;;;;;;;;;;;;21.72;28.08;97477.84;4942459;29;991;-80
2023/04/15 08:54:26;;;;;;;;;;;;;;;21.53;28.19;97488.19;4926383;29;1224;-80
2023/04/15 08:56:51;;;;;;;;;;;;;;;21.51;28.14;97484.25;4925204;29;2025;-80
2023/04/15 08:59:17;;;;;;;;;;;;;;;21.66;28.16;97474.00;4884793;29;1906;-81
2023/04/15 09:01:42;;;;;;;;;;;;;;;21.76;28.26;97467.19;4900827;29;994;-80
2023/04/15 09:04:08;;;;;;;;;;;;;;;21.92;27.92;97473.91;4900881;29;972;-80
2023/04/15 09:06:34;;;;;;;;;;;;;;;21.91;27.75;97475.94;4885714;29;974;-80
2023/04/15 09:08:59;;;;;;;;;;;;;;;21.70;28.21;97474.66;4885058;29;1034;-80
2023/04/15 09:11:25;;;;;;;;;;;;;;;21.65;28.21;97471.63;4899612;29;1850;-80
2023/04/15 09:13:51;;;;;;;;;;;;;;;21.46;28.31;97471.47;4903546;29;934;-78
2023/04/15 09:16:17;;;;;;;;;;;;;;;21.65;28.28;97469.56;4963051;28;957;-80
2023/04/15 09:18:43;;;;;;;;;;;;;;;22.27;27.13;97483.94;4938097;29;1359;-80
2023/04/15 09:21:12;;;;;;;;;;;;;;;22.18;27.52;97483.91;4938677;29;1907;-80
2023/04/15 09:23:38;;;;;;;;;;;;;;;22.01;27.56;97488.13;4937884;29;1945;-80
2023/04/15 09:26:03;;;;;;;;;;;;;;;21.73;28.23;97490.75;4906848;29;1084;-80
2023/04/15 09:28:29;;;;;;;;;;;;;;;21.78;28.03;97498.66;4921093;29;2130;-80
2023/04/15 09:30:56;;;;;;;;;;;;;;;21.75;27.87;97481.78;4923920;29;1699;-79
2023/04/15 09:33:22;;;;;;;;;;;;;;;21.36;28.56;97480.31;4921306;29;1504;-80
2023/04/15 09:35:55;;;;;;;;;;;;;;;22.23;27.35;97488.19;4943215;28;1532;-80
2023/04/15 09:38:20;;;;;;;;;;;;;;;22.06;27.46;97484.72;4939981;29;1589;-80
2023/04/15 09:40:46;;;;;;;;;;;;;;;21.95;27.94;97478.66;4957333;29;1894;-80
2023/04/15 09:43:12;;;;;;;;;;;;;;;21.78;27.97;97487.31;4957370;29;1028;-79
2023/04/15 09:45:38;;;;;;;;;;;;;;;21.53;28.55;97484.56;4957431;29;1027;-80
2023/04/15 09:48:22;;;;;;;;;;;;;;;21.58;28.25;97486.81;4940943;29;892;-80
2023/04/15 09:50:48;;;;;;;;;;;;;;;21.63;28.24;97488.28;4985386;28;2136;-80
2023/04/15 09:53:18;;;;;;;;;;;;;;;21.55;28.22;97501.88;5008505;28;1648;-80
2023/04/15 09:55:53;;;;;;;;;;;;;;;22.09;27.95;97497.97;5016624;28;954;-79
2023/04/15 09:58:26;;;;;;;;;;;;;;;22.15;27.60;97501.03;4980697;28;941;-80
2023/04/15 10:00:52;;;;;;;;;;;;;;;21.99;28.04;97501.97;4997389;28;1902;-80
2023/04/15 10:03:19;;;;;;;;;;;;;;;21.58;28.34;97496.09;4996130;28;975;-80
2023/04/15 10:05:45;;;;;;;;;;;;;;;21.66;28.32;97493.84;4996812;28;955;-80
2023/04/15 10:08:11;;;;;;;;;;;;;;;21.89;27.88;97492.59;4959521;28;1358;-80
2023/04/15 10:10:36;;;;;;;;;;;;;;;21.63;28.35;97479.78;4976202;28;1049;-80
2023/04/15 10:13:02;;;;;;;;;;;;;;;21.49;28.79;97483.91;4978134;28;1069;-80
2023/04/15 10:15:28;;;;;;;;;;;;;;;22.13;27.86;97487.31;4964286;28;981;-79
2023/04/15 10:17:53;;;;;;;;;;;;;;;22.04;28.18;97478.72;4962299;28;2582;-79
2023/04/15 10:20:19;;;;;;;;;;;;;;;22.15;27.99;97478.34;4945135;29;1894;-80
2023/04/15 10:22:45;;;;;;;;;;;;;;;21.97;28.17;97481.81;4944640;29;1021;-80
2023/04/15 10:25:10;;;;;;;;;;;;;;;21.60;28.56;97475.81;4945320;28;1836;-79
2023/04/15 10:27:36;;;;;;;;;;;;;;;21.63;28.66;97480.59;4962648;28;1909;-81
2023/04/15 10:30:02;;;;;;;;;;;;;;;21.47;28.92;97477.91;4963333;28;1862;-80
2023/04/15 10:32:28;;;;;;;;;;;;;;;21.43;28.93;97471.59;4960309;29;972;-80
2023/04/15 10:34:53;;;;;;;;;;;;;;;22.21;27.91;97482.97;4960395;29;958;-80
2023/04/15 10:37:22;;;;;;;;;;;;;;;22.11;27.87;97478.47;4978904;28;1505;-79
2023/04/15 10:39:48;;;;;;;;;;;;;;;21.98;27.99;97477.75;5008284;28;1902;-80
2023/04/15 10:42:17;;;;;;;;;;;;;;;21.76;28.46;97472.03;4998695;28;1021;-80
2023/04/15 10:44:43;;;;;;;;;;;;;;;21.35;28.93;97475.88;4965956;28;943;-80
2023/04/15 10:47:12;;;;;;;;;;;;;;;21.60;28.86;97478.66;4999123;28;1007;-80
2023/04/15 10:49:59;;;;;;;;;;;;;;;22.27;27.70;97489.59;4966368;28;992;-81
2023/04/15 10:52:26;;;;;;;;;;;;;;;22.28;27.83;97477.03;4998800;28;1093;-80
2023/04/15 10:55:01;;;;;;;;;;;;;;;21.76;28.50;97475.69;4997691;28;2032;-80
2023/04/15 10:57:27;;;;;;;;;;;;;;;21.89;28.15;97475.63;4982415;28;986;-80
2023/04/15 10:59:57;;;;;;;;;;;;;;;21.69;28.36;97469.47;4995481;28;1906;-79
2023/04/15 11:02:23;;;;;;;;;;;;;;;21.56;28.55;97469.53;4999190;28;950;-79
2023/04/15 11:04:52;;;;;;;;;;;;;;;21.67;28.22;97472.75;4996008;28;945;-80
2023/04/15 11:07:37;;;;;;;;;;;;;;;21.76;28.58;97472.03;4999250;28;930;-80
2023/04/15 11:10:26;;;;;;;;;;;;;;;21.99;28.52;97479.31;4997261;28;1549;-80
2023/04/15 11:12:57;;;;;;;;;;;;;;;22.17;27.95;97479.47;4889559;29;1741;-80
2023/04/15 11:15:29;;;;;;;;;;;;;;;21.96;28.38;97478.19;4921046;29;1075;-79
2023/04/15 11:17:55;;;;;;;;;;;;;;;21.64;28.64;97476.50;4927340;29;1621;-80
2023/04/15 11:20:21;;;;;;;;;;;;;;;21.60;29.06;97478.66;4940028;29;1898;-80
2023/04/15 11:22:47;;;;;;;;;;;;;;;21.52;28.92;97485.81;4924252;29;968;-80
2023/04/15 11:25:23;;;;;;;;;;;;;;;21.31;29.30;97476.81;4923501;29;939;-80
2023/04/15 11:27:49;;;;;;;;;;;;;;;21.49;28.78;97478.25;4907936;29;1964;-80
2023/04/15 11:30:21;;;;;;;;;;;;;;;21.72;28.81;97488.38;4924143;29;1038;-80
2023/04/15 11:32:47;;;;;;;;;;;;;;;22.23;27.94;97488.19;4920527;29;1041;-79
2023/04/15 11:35:12;;;;;;;;;;;;;;;22.18;28.10;97492.41;4921174;29;987;-80
2023/04/15 11:37:38;;;;;;;;;;;;;;;22.07;27.96;97494.78;4905054;29;1184;-80
2023/04/15 11:40:04;;;;;;;;;;;;;;;21.92;28.07;97479.59;4904974;29;1911;-80
2023/04/15 11:42:30;;;;;;;;;;;;;;;21.56;28.69;97469.53;4888887;29;2036;-80
2023/04/15 11:45:14;;;;;;;;;;;;;;;21.44;29.27;97484.47;4920385;29;974;-80
2023/04/15 11:47:40;;;;;;;;;;;;;;;21.43;29.15;97494.22;4905189;29;1098;-80
2023/04/15 11:50:18;;;;;;;;;;;;;;;21.29;29.27;97484.91;4962591;28;1031;-80
2023/04/15 11:52:57;;;;;;;;;;;;;;;22.03;28.39;97491.31;4984517;28;1099;-80
2023/04/15 11:55:23;;;;;;;;;;;;;;;22.30;27.87;97487.91;5016975;28;977;-80
2023/04/15 11:58:07;;;;;;;;;;;;;;;22.12;28.31;97488.56;4957671;29;1733;-80
2023/04/15 12:00:32;;;;;;;;;;;;;;;21.91;28.57;97480.81;4958890;29;1969;-79
2023/04/15 12:03:21;;;;;;;;;;;;;;;21.78;28.47;97476.00;4958572;29;927;-80
2023/04/15 12:06:02;;;;;;;;;;;;;;;21.59;28.66;97485.56;4901474;29;1162;-78
2023/04/15 12:08:47;;;;;;;;;;;;;;;21.64;28.55;97476.50;4900955;29;1157;-80
2023/04/15 12:11:12;;;;;;;;;;;;;;;21.44;28.85;97473.94;4901291;29;1012;-80
2023/04/15 12:13:41;;;;;;;;;;;;;;;21.99;28.32;97473.66;4915035;29;2173;-80
2023/04/15 12:16:06;;;;;;;;;;;;;;;22.05;28.25;97477.47;4904859;29;1262;-81
2023/04/15 12:18:32;;;;;;;;;;;;;;;21.84;28.52;97479.81;4888197;29;947;-80
2023/04/15 12:21:03;;;;;;;;;;;;;;;21.58;28.91;97484.78;4889036;29;1907;-80
2023/04/15 12:23:29;;;;;;;;;;;;;;;21.74;28.63;97475.34;4919600;29;962;-80
2023/04/15 12:25:55;;;;;;;;;;;;;;;21.64;28.76;97470.03;4920392;29;1100;-79
2023/04/15 12:28:21;;;;;;;;;;;;;;;21.52;29.03;97468.84;4905965;28;1777;-80
2023/04/15 12:30:50;;;;;;;;;;;;;;;21.53;28.97;97476.88;4977449;28;1071;-80
2023/04/15 12:33:16;;;;;;;;;;;;;;;21.45;29.18;97475.56;4945312;28;1134;-78
2023/04/15 12:35:42;;;;;;;;;;;;;;;21.79;28.65;97488.13;4960565;28;1062;-79
2023/04/15 12:38:09;;;;;;;;;;;;;;;22.11;28.05;97486.97;4960439;28;1163;-80
2023/04/15 12:40:35;;;;;;;;;;;;;;;22.33;27.98;97482.13;4977035;28;1968;-80
2023/04/15 12:43:00;;;;;;;;;;;;;;;21.60;28.95;97481.50;4960115;28;1934;-79
2023/04/15 12:45:26;;;;;;;;;;;;;;;21.64;28.64;97479.31;5001289;28;1235;-80
2023/04/15 12:47:51;;;;;;;;;;;;;;;21.72;28.57;97482.72;5000521;28;930;-79
2023/04/15 12:50:17;;;;;;;;;;;;;;;21.55;28.52;97437.59;5017237;28;1101;-80
2023/04/15 12:52:43;;;;;;;;;;;;;;;21.52;28.88;97477.34;5017048;28;929;-80
2023/04/15 12:55:08;;;;;;;;;;;;;;;21.58;28.71;97472.66;5016001;28;985;-79
2023/04/15 12:57:34;;;;;;;;;;;;;;;22.19;28.32;97482.66;5005386;28;1930;-79